Allouez, WI

2:47 AM CDT on October 24, 2014 (GMT -0500)
Bellevue | Change Station
CLOSE
Current Station
Personal Weather Station
Location: Green Bay, WI
Elevation: 614 ft
Nearby Weather Stations

Elev 614 ft 44.46 °N, 87.98 °W | Updated 7 minutes ago

Overcast
Overcast
49.6 °F
Feels Like 50 °F
N
0.0
Wind Variable Wind from South
Gusts 0.0 mph

Today
High -- | Low -- °F
--% Chance of Precip.
Yesterday
High -- | Low -- °F
Precip. -- in
7:18 AM 5:52 PM
New Moon, 0% visible
Pressure 30.03 in
Visibility 4.0 miles
Clouds Few 600 ft
Overcast 1700 ft
Windchill 50 °F
Dew Point 46 °F
Humidity 87%
Rainfall 0.00 in
Snow Depth Not available.
UV 0 out of 12
Pollen .10 out of 12
PM2.5 Moderate
Flu Activity Sporadic
METAR KGRB 240653Z AUTO 28004KT 4SM BR FEW006 OVC017 09/08 A3002 RMK AO2 SLP169 T00890083

More Conditions Fewer Conditions

Pressure 30.03 in
Visibility 4.0 miles
Clouds Few 600 ft
Overcast 1700 ft
Windchill 50 °F
Dew Point 46 °F
Humidity 87%
Rainfall 0.00 in
Snow Depth Not available.
UV 0 out of 12
Pollen .10 out of 12
PM2.5 Moderate
Flu Activity Sporadic
METAR KGRB 240653Z AUTO 28004KT 4SM BR FEW006 OVC017 09/08 A3002 RMK AO2 SLP169 T00890083

More Conditions Fewer Conditions

10-Day Weather Forecast

Almanac

Astronomy

Oct. 24, 2014 Rise Set
Actual Time 7:18 AM CDT 5:52 PM CDT
Civil Twilight 6:49 AM CDT 6:22 PM CDT
Nautical Twilight 6:15 AM CDT 6:56 PM CDT
Astronomical Twilight 5:41 AM CDT 7:30 PM CDT
Moon 7:58 AM CDT 6:30 PM CDT
Length of Visible Light 11h 33m
Length of Day
10h 34m
Tomorrow will be 2m 52s shorter.
New Moon, 0% of the Moon is Illuminated
Today
New Moon
Oct 30
First Quarter
Nov 6
Full
Nov 14
Last Quarter
Nov 22
New

Today's Extremes

State Highs State Lows

Community

WunderPhotos

Upload Photos

1,764,512 photos uploaded!

WunderBlogs® & News

Nearby

Air Quality

  Air Quality AQ Index Pollutant
Yesterday Good
PM2.5
Current Moderate
PM2.5
Friday Moderate
PM2.5
Saturday Good
PM2.5
Sunday Good
PM2.5

Snow Depth

Station Depth Elevation
No new snow has been reported.

Earthquake Activity

City Distance Mag. Time & Date
No recent earthquake activity has been reported nearby.
Minimum magnitude displayed is 2.5.

Coastal Water Temperatures

Place Temperature
Menominee, MI 50.0 °F

Nearby Weather Stations